Millbrae, CA (94030)

1:13 PM PST on January 31, 2015 (GMT -0800)
Burlingame Hills | Change Station
CLOSE
Current Station
Personal Weather Station
Location: Burlingame, CA
Elevation: 492 ft
Nearby Weather Stations

Elev 492 ft 37.58 °N, 122.40 °W | Updated 4 minutes ago

Partly Cloudy
Partly Cloudy
70.3 °F
Feels Like 74 °F
N
7.0
Wind Variable Wind from NE

Today
High -- | Low -- °F
--% Chance of Precip.
Yesterday
High -- | Low -- °F
Precip. -- in
7:14 AM 5:32 PM
Waxing Gibbous, 91% visible
Pressure 29.97 in
Visibility 10.0 miles
Clouds Few 20000 ft
Heat Index 74 °F
Dew Point 26 °F
Humidity 19%
Rainfall 0.00 in
Snow Depth Not available.
UV 4 out of 12
Pollen 5.30 out of 12
Air Quality Not available.
Flu Activity Not available.
METAR KSFO 312056Z 34004KT 10SM FEW200 22/M01 A2997 RMK AO2 SLP149 T02221006 58007

More Conditions Fewer Conditions

Pressure 29.97 in
Visibility 10.0 miles
Clouds Few 20000 ft
Heat Index 74 °F
Dew Point 26 °F
Humidity 19%
Rainfall 0.00 in
Snow Depth Not available.
UV 4 out of 12
Pollen 5.30 out of 12
Air Quality Not available.
Flu Activity Not available.
METAR KSFO 312056Z 34004KT 10SM FEW200 22/M01 A2997 RMK AO2 SLP149 T02221006 58007

More Conditions Fewer Conditions

10-Day Weather Forecast

Almanac

Astronomy

Jan. 31, 2015 Rise Set
Actual Time
Civil Twilight
Nautical Twilight
Astronomical Twilight
Moon
Length of Visible Light
Length of Day
Tomorrow will be .
, % of the Moon is Illuminated

Today's Extremes

State Highs State Lows

Community

WunderPhotos

Upload Photos

1,792,203 photos uploaded!

WunderBlogs® & News

Nearby

Air Quality

  Air Quality AQ Index Pollutant
Not available.

Snow Depth

Station Depth Elevation

Earthquake Activity

City Distance Mag. Time & Date
Minimum magnitude displayed is 2.5.

Coastal Water Temperatures

Place Temperature

Nearby Weather Stations